Time;durP1;ratioP1;P1;durP2;ratioP2;P2;SDS_P1;SDS_P2;PMS_P1;PMS_P2;Temp;Humidity;BMP_temperature;BMP_pressure;BME280_temperature;BME280_humidity;BME280_pressure;Samples;Min_cycle;Max_cycle;Signal;HPM_P1;HPM_P2
2023/05/15 00:00:51;;;;;;;39.88;21.02;;;;;;;;;;4976658;28;25069;-77
2023/05/15 00:03:17;;;;;;;42.25;19.58;;;;;;;;;;4973614;28;25094;-79
2023/05/15 00:05:43;;;;;;;36.15;19.95;;;;;;;;;;4967609;28;25153;-75
2023/05/15 00:08:09;;;;;;;41.28;20.55;;;;;;;;;;4962632;28;25061;-76
2023/05/15 00:10:35;;;;;;;38.92;19.50;;;;;;;;;;4960030;28;25111;-78
2023/05/15 00:13:01;;;;;;;37.30;19.17;;;;;;;;;;4962111;28;25085;-77
2023/05/15 00:15:27;;;;;;;36.45;19.88;;;;;;;;;;4955356;28;25063;-74
2023/05/15 00:17:53;;;;;;;36.47;20.33;;;;;;;;;;4957820;28;25069;-76
2023/05/15 00:20:19;;;;;;;38.35;20.65;;;;;;;;;;4956281;28;25077;-76
2023/05/15 00:22:45;;;;;;;36.85;19.67;;;;;;;;;;4956409;28;25074;-76
2023/05/15 00:25:11;;;;;;;33.42;20.08;;;;;;;;;;4957488;28;25039;-76
2023/05/15 00:27:37;;;;;;;36.67;20.75;;;;;;;;;;4958271;28;25069;-77
2023/05/15 00:30:03;;;;;;;35.72;19.83;;;;;;;;;;4957370;28;25082;-76
2023/05/15 00:32:29;;;;;;;35.42;20.25;;;;;;;;;;4957535;28;25065;-75
2023/05/15 00:34:55;;;;;;;39.53;22.92;;;;;;;;;;4958080;28;25066;-75
2023/05/15 00:37:21;;;;;;;44.58;19.75;;;;;;;;;;4956300;28;25130;-77
2023/05/15 00:39:47;;;;;;;36.53;20.13;;;;;;;;;;4957344;28;25145;-76
2023/05/15 00:42:15;;;;;;;34.05;21.00;;;;;;;;;;4957359;28;25067;-78
2023/05/15 00:44:44;;;;;;;35.78;20.75;;;;;;;;;;4957974;28;25095;-77
2023/05/15 00:47:10;;;;;;;38.20;21.70;;;;;;;;;;4960096;28;25056;-77
2023/05/15 00:49:37;;;;;;;33.90;20.33;;;;;;;;;;4958270;28;25056;-76
2023/05/15 00:52:07;;;;;;;36.55;21.48;;;;;;;;;;4956802;28;25076;-76
2023/05/15 00:54:33;;;;;;;41.65;20.88;;;;;;;;;;4961863;28;25070;-76
2023/05/15 00:56:59;;;;;;;34.88;21.27;;;;;;;;;;4968205;28;25105;-81
2023/05/15 00:59:27;;;;;;;39.70;21.67;;;;;;;;;;4968349;28;25202;-75
2023/05/15 01:01:53;;;;;;;38.78;21.75;;;;;;;;;;4957544;28;25058;-76
2023/05/15 01:04:19;;;;;;;36.67;22.45;;;;;;;;;;4956927;28;25058;-78
2023/05/15 01:06:47;;;;;;;41.92;22.70;;;;;;;;;;4955315;28;25062;-74
2023/05/15 01:09:14;;;;;;;40.30;23.63;;;;;;;;;;4957524;28;25067;-78
2023/05/15 01:11:41;;;;;;;39.13;22.83;;;;;;;;;;4954876;28;25160;-76
2023/05/15 01:14:08;;;;;;;45.83;24.75;;;;;;;;;;4955922;28;25116;-76
2023/05/15 01:16:34;;;;;;;48.42;26.08;;;;;;;;;;4956389;28;25079;-76
2023/05/15 01:19:01;;;;;;;50.05;26.23;;;;;;;;;;4955725;28;25055;-76
2023/05/15 01:21:36;;;;;;;55.85;26.58;;;;;;;;;;4956919;28;25084;-78
2023/05/15 01:24:20;;;;;;;44.50;26.25;;;;;;;;;;4955533;28;25072;-76
2023/05/15 01:26:46;;;;;;;45.53;23.98;;;;;;;;;;4954629;28;25061;-78
2023/05/15 01:29:51;;;;;;;46.35;25.15;;;;;;;;;;4955759;28;25141;-76
2023/05/15 01:32:35;;;;;;;51.70;25.80;;;;;;;;;;4897070;29;25073;-74
2023/05/15 01:35:10;;;;;;;44.50;25.30;;;;;;;;;;4898636;29;25133;-78
2023/05/15 01:37:40;;;;;;;53.88;26.38;;;;;;;;;;4938100;28;25079;-74
2023/05/15 01:40:07;;;;;;;47.85;25.90;;;;;;;;;;4957626;28;25057;-75
2023/05/15 01:42:34;;;;;;;52.97;26.83;;;;;;;;;;4956309;28;25049;-77
2023/05/15 01:45:02;;;;;;;60.15;28.08;;;;;;;;;;4962469;28;25071;-77
2023/05/15 01:47:38;;;;;;;51.53;27.42;;;;;;;;;;4960225;28;25077;-74
2023/05/15 01:50:05;;;;;;;55.45;29.90;;;;;;;;;;4958142;28;25036;-75
2023/05/15 01:52:36;;;;;;;60.60;29.85;;;;;;;;;;4955384;28;25093;-74
2023/05/15 01:55:04;;;;;;;54.63;28.60;;;;;;;;;;4957172;28;25076;-76
2023/05/15 01:57:30;;;;;;;54.45;29.80;;;;;;;;;;4958783;28;25072;-76
2023/05/15 01:59:57;;;;;;;58.55;29.15;;;;;;;;;;4955793;28;25083;-76
2023/05/15 02:02:23;;;;;;;55.55;29.75;;;;;;;;;;4958048;28;25110;-76
2023/05/15 02:04:50;;;;;;;60.72;30.42;;;;;;;;;;4960582;28;25084;-74
2023/05/15 02:07:16;;;;;;;57.50;29.95;;;;;;;;;;4955651;28;25065;-74
2023/05/15 02:09:43;;;;;;;54.92;29.13;;;;;;;;;;4958446;28;25085;-75
2023/05/15 02:12:09;;;;;;;62.90;31.23;;;;;;;;;;4959721;28;25106;-74
2023/05/15 02:14:36;;;;;;;63.35;29.63;;;;;;;;;;4958780;28;25194;-73
2023/05/15 02:17:02;;;;;;;62.10;30.92;;;;;;;;;;4959855;28;25056;-75
2023/05/15 02:19:28;;;;;;;60.35;30.33;;;;;;;;;;4963999;28;25065;-75
2023/05/15 02:21:54;;;;;;;62.05;31.30;;;;;;;;;;4962210;28;25085;-74
2023/05/15 02:24:20;;;;;;;61.55;31.63;;;;;;;;;;4959103;28;25101;-74
2023/05/15 02:26:58;;;;;;;58.95;31.40;;;;;;;;;;4959545;28;25071;-74
2023/05/15 02:29:44;;;;;;;59.92;29.63;;;;;;;;;;4958358;28;25090;-76
2023/05/15 02:32:13;;;;;;;65.97;32.47;;;;;;;;;;4914363;28;25096;-74
2023/05/15 02:34:45;;;;;;;63.60;31.33;;;;;;;;;;4974875;28;25069;-76
2023/05/15 02:37:14;;;;;;;65.85;31.85;;;;;;;;;;4959392;28;25133;-77
2023/05/15 02:39:41;;;;;;;55.55;27.90;;;;;;;;;;4959072;28;25067;-75
2023/05/15 02:42:08;;;;;;;64.25;32.15;;;;;;;;;;4960333;28;25078;-74
2023/05/15 02:44:35;;;;;;;57.47;30.27;;;;;;;;;;4960209;28;25142;-75
2023/05/15 02:47:01;;;;;;;60.08;29.25;;;;;;;;;;4959731;28;25173;-72
2023/05/15 02:49:27;;;;;;;52.67;29.33;;;;;;;;;;4959646;28;25109;-74
2023/05/15 02:51:53;;;;;;;54.15;28.83;;;;;;;;;;4960798;28;25074;-74
2023/05/15 02:54:20;;;;;;;66.50;30.02;;;;;;;;;;4961821;28;25121;-76
2023/05/15 02:56:46;;;;;;;60.88;28.90;;;;;;;;;;4969737;28;25095;-77
2023/05/15 02:59:17;;;;;;;56.40;30.42;;;;;;;;;;4968226;28;25106;-74
2023/05/15 03:01:43;;;;;;;52.80;28.20;;;;;;;;;;4960312;28;25053;-74
2023/05/15 03:04:09;;;;;;;49.63;25.30;;;;;;;;;;4958320;28;25143;-74
2023/05/15 03:06:35;;;;;;;49.88;26.98;;;;;;;;;;4960189;28;25150;-78
2023/05/15 03:09:01;;;;;;;47.38;28.90;;;;;;;;;;4957307;28;25106;-75
2023/05/15 03:11:27;;;;;;;50.00;26.35;;;;;;;;;;4957010;28;25087;-75
2023/05/15 03:13:53;;;;;;;49.95;26.50;;;;;;;;;;4957386;28;25081;-75
2023/05/15 03:16:19;;;;;;;58.38;27.58;;;;;;;;;;4957756;28;25049;-79
2023/05/15 03:18:45;;;;;;;54.47;28.65;;;;;;;;;;4958953;28;25074;-75
2023/05/15 03:21:11;;;;;;;56.40;28.73;;;;;;;;;;4957624;28;25058;-75
2023/05/15 03:23:37;;;;;;;54.05;30.38;;;;;;;;;;4956867;28;25071;-79
2023/05/15 03:26:03;;;;;;;55.92;30.83;;;;;;;;;;4958167;28;25079;-74
2023/05/15 03:28:29;;;;;;;54.63;28.70;;;;;;;;;;4956540;28;25086;-76
2023/05/15 03:30:55;;;;;;;58.47;30.10;;;;;;;;;;4957809;28;25089;-77
2023/05/15 03:33:21;;;;;;;54.53;28.67;;;;;;;;;;4957378;28;25072;-76
2023/05/15 03:35:47;;;;;;;50.95;28.58;;;;;;;;;;4958063;28;25045;-75
2023/05/15 03:38:13;;;;;;;56.75;29.60;;;;;;;;;;4956961;28;25084;-79
2023/05/15 03:40:39;;;;;;;56.70;30.23;;;;;;;;;;4956768;28;25043;-76
2023/05/15 03:43:05;;;;;;;51.88;30.02;;;;;;;;;;4961232;28;25069;-76
2023/05/15 03:45:34;;;;;;;53.35;28.80;;;;;;;;;;4960841;28;25104;-77
2023/05/15 03:48:00;;;;;;;52.30;27.90;;;;;;;;;;4956723;28;25074;-74
2023/05/15 03:50:26;;;;;;;51.42;27.40;;;;;;;;;;4956180;28;25139;-75
2023/05/15 03:52:52;;;;;;;60.20;30.42;;;;;;;;;;4958475;28;25118;-75
2023/05/15 03:55:18;;;;;;;52.38;29.00;;;;;;;;;;4955715;28;25167;-73
2023/05/15 03:57:44;;;;;;;55.17;29.05;;;;;;;;;;4955174;28;25059;-74
2023/05/15 04:00:11;;;;;;;54.22;29.42;;;;;;;;;;4955956;28;25067;-75
2023/05/15 04:02:37;;;;;;;50.95;28.83;;;;;;;;;;4956514;28;25103;-73
2023/05/15 04:05:04;;;;;;;52.72;27.88;;;;;;;;;;4955856;28;25067;-75
2023/05/15 04:07:30;;;;;;;50.90;27.80;;;;;;;;;;4955949;28;25123;-75
2023/05/15 04:09:56;;;;;;;52.35;26.88;;;;;;;;;;4953916;28;25076;-75
2023/05/15 04:12:22;;;;;;;63.00;30.33;;;;;;;;;;4956229;28;25069;-72
2023/05/15 04:14:48;;;;;;;60.55;28.52;;;;;;;;;;4955754;28;25092;-75
2023/05/15 04:17:14;;;;;;;57.42;30.80;;;;;;;;;;4962991;28;25072;-72
2023/05/15 04:19:40;;;;;;;52.13;28.70;;;;;;;;;;4956681;28;25157;-76
2023/05/15 04:22:06;;;;;;;53.13;29.83;;;;;;;;;;4957846;28;25104;-75
2023/05/15 04:24:32;;;;;;;58.30;29.35;;;;;;;;;;4957561;28;25072;-74
2023/05/15 04:26:57;;;;;;;63.67;31.52;;;;;;;;;;4956615;28;25064;-74
2023/05/15 04:29:23;;;;;;;58.90;32.20;;;;;;;;;;4957857;28;25066;-77
2023/05/15 04:31:49;;;;;;;60.13;31.80;;;;;;;;;;4957040;28;25067;-75
2023/05/15 04:34:15;;;;;;;57.95;30.88;;;;;;;;;;4957582;28;25051;-78
2023/05/15 04:36:42;;;;;;;63.83;31.90;;;;;;;;;;4956434;28;25051;-74
2023/05/15 04:39:08;;;;;;;56.60;30.85;;;;;;;;;;4955639;28;25066;-76
2023/05/15 04:41:33;;;;;;;60.05;32.25;;;;;;;;;;4956766;28;25143;-74
2023/05/15 04:43:59;;;;;;;54.97;30.63;;;;;;;;;;4955994;28;25134;-76
2023/05/15 04:46:25;;;;;;;56.78;31.27;;;;;;;;;;4958414;28;25139;-74
2023/05/15 04:48:51;;;;;;;49.05;28.70;;;;;;;;;;4959747;28;25073;-74
2023/05/15 04:51:17;;;;;;;51.72;30.05;;;;;;;;;;4956013;28;25093;-77
2023/05/15 04:53:43;;;;;;;50.88;28.80;;;;;;;;;;4956897;28;25089;-78
2023/05/15 04:56:09;;;;;;;46.85;29.48;;;;;;;;;;4956109;28;25099;-77
2023/05/15 04:58:36;;;;;;;45.97;26.85;;;;;;;;;;4965416;28;25059;-77
2023/05/15 05:01:01;;;;;;;45.78;25.58;;;;;;;;;;4959759;28;25064;-77
2023/05/15 05:03:28;;;;;;;46.47;28.25;;;;;;;;;;4959202;28;25092;-77
2023/05/15 05:05:54;;;;;;;47.03;26.17;;;;;;;;;;4956612;28;25135;-78
2023/05/15 05:08:20;;;;;;;46.10;28.45;;;;;;;;;;4956605;28;25075;-74
2023/05/15 05:10:45;;;;;;;42.83;26.05;;;;;;;;;;4960814;28;25084;-78
2023/05/15 05:13:11;;;;;;;47.45;26.52;;;;;;;;;;4961338;28;25075;-74
2023/05/15 05:15:37;;;;;;;48.83;27.90;;;;;;;;;;4957497;28;25087;-75
2023/05/15 05:18:04;;;;;;;41.95;25.90;;;;;;;;;;4957373;28;25157;-76
2023/05/15 05:20:29;;;;;;;47.45;27.63;;;;;;;;;;4956413;28;25092;-78
2023/05/15 05:22:55;;;;;;;43.20;26.92;;;;;;;;;;4962134;28;25070;-75
2023/05/15 05:25:21;;;;;;;38.88;23.92;;;;;;;;;;4958328;28;25043;-73
2023/05/15 05:27:47;;;;;;;42.33;24.90;;;;;;;;;;4956483;28;25162;-77
2023/05/15 05:30:13;;;;;;;40.75;24.48;;;;;;;;;;4956219;28;25057;-78
2023/05/15 05:32:39;;;;;;;38.25;23.23;;;;;;;;;;4953865;28;25091;-74
2023/05/15 05:35:05;;;;;;;38.10;22.33;;;;;;;;;;4957957;28;25110;-75
2023/05/15 05:37:31;;;;;;;40.88;25.08;;;;;;;;;;4961276;28;25131;-71
2023/05/15 05:39:57;;;;;;;41.38;24.95;;;;;;;;;;4958572;28;25100;-75
2023/05/15 05:42:23;;;;;;;45.50;25.20;;;;;;;;;;4960230;28;25083;-76
2023/05/15 05:44:49;;;;;;;42.97;25.52;;;;;;;;;;4961366;28;25092;-76
2023/05/15 05:47:15;;;;;;;42.35;25.60;;;;;;;;;;4961420;28;25157;-76
2023/05/15 05:49:42;;;;;;;39.92;24.30;;;;;;;;;;4967567;28;25069;-75
2023/05/15 05:52:08;;;;;;;39.38;25.80;;;;;;;;;;4959734;28;25092;-76
2023/05/15 05:54:34;;;;;;;37.92;22.58;;;;;;;;;;4958613;28;25108;-77
2023/05/15 05:57:00;;;;;;;37.88;24.20;;;;;;;;;;4959966;28;25071;-76
2023/05/15 05:59:26;;;;;;;39.22;24.25;;;;;;;;;;4960125;28;25065;-72
2023/05/15 06:01:52;;;;;;;40.10;23.58;;;;;;;;;;4957331;28;25107;-75
2023/05/15 06:04:18;;;;;;;36.13;23.30;;;;;;;;;;4960878;28;25100;-76
2023/05/15 06:06:44;;;;;;;36.70;23.88;;;;;;;;;;4959521;28;25083;-76
2023/05/15 06:09:10;;;;;;;33.22;22.45;;;;;;;;;;4960110;28;25148;-74
2023/05/15 06:11:36;;;;;;;33.58;21.42;;;;;;;;;;4963101;28;25103;-75
2023/05/15 06:14:02;;;;;;;33.20;23.17;;;;;;;;;;4963530;28;25053;-78
2023/05/15 06:16:28;;;;;;;31.58;22.30;;;;;;;;;;4963621;28;25129;-72
2023/05/15 06:18:54;;;;;;;27.27;19.58;;;;;;;;;;4963760;28;25069;-74
2023/05/15 06:21:21;;;;;;;33.40;21.50;;;;;;;;;;4964314;28;25066;-78
2023/05/15 06:23:47;;;;;;;31.30;22.17;;;;;;;;;;4966718;28;24901;-75
2023/05/15 06:26:12;;;;;;;36.75;22.40;;;;;;;;;;4964373;28;25074;-76
2023/05/15 06:28:38;;;;;;;31.88;22.70;;;;;;;;;;4966403;28;25065;-76
2023/05/15 06:31:04;;;;;;;38.88;20.45;;;;;;;;;;4962641;28;25131;-75
2023/05/15 06:33:30;;;;;;;29.90;19.10;;;;;;;;;;4961211;28;25153;-79
2023/05/15 06:35:56;;;;;;;30.17;18.98;;;;;;;;;;4959850;28;25165;-78
2023/05/15 06:38:22;;;;;;;31.90;19.92;;;;;;;;;;4956357;28;25067;-77
2023/05/15 06:40:48;;;;;;;27.92;19.13;;;;;;;;;;4957283;28;25080;-77
2023/05/15 06:43:14;;;;;;;28.02;18.63;;;;;;;;;;4960704;28;25055;-74
2023/05/15 06:45:40;;;;;;;34.42;20.40;;;;;;;;;;4958292;28;25142;-78
2023/05/15 06:48:06;;;;;;;28.30;19.65;;;;;;;;;;4958930;28;25063;-77
2023/05/15 06:50:32;;;;;;;32.15;20.17;;;;;;;;;;4958741;28;25095;-75
2023/05/15 06:52:58;;;;;;;27.98;19.45;;;;;;;;;;4959836;28;25113;-76
2023/05/15 06:55:24;;;;;;;29.00;19.05;;;;;;;;;;4964159;28;25058;-75
2023/05/15 06:57:50;;;;;;;33.85;18.65;;;;;;;;;;4962166;28;25165;-73
2023/05/15 07:00:16;;;;;;;27.17;18.52;;;;;;;;;;4959427;28;25064;-74
2023/05/15 07:02:42;;;;;;;24.70;17.35;;;;;;;;;;4959759;28;25081;-73
2023/05/15 07:05:09;;;;;;;29.58;18.75;;;;;;;;;;4959395;28;25135;-76
2023/05/15 07:07:35;;;;;;;22.58;16.73;;;;;;;;;;4957740;28;25063;-75
2023/05/15 07:10:01;;;;;;;25.52;17.85;;;;;;;;;;4958185;28;25127;-74
2023/05/15 07:12:27;;;;;;;24.92;17.85;;;;;;;;;;4957731;28;25074;-74
2023/05/15 07:14:53;;;;;;;24.58;17.60;;;;;;;;;;4957395;28;25076;-74
2023/05/15 07:17:19;;;;;;;24.27;16.55;;;;;;;;;;4959033;28;25063;-73
2023/05/15 07:19:45;;;;;;;24.52;16.33;;;;;;;;;;4957799;28;25058;-75
2023/05/15 07:22:11;;;;;;;28.27;18.60;;;;;;;;;;4958277;28;25112;-74
2023/05/15 07:24:37;;;;;;;27.15;17.52;;;;;;;;;;4957809;28;25083;-76
2023/05/15 07:27:03;;;;;;;27.60;18.75;;;;;;;;;;4958579;28;25058;-74
2023/05/15 07:29:29;;;;;;;30.15;17.92;;;;;;;;;;4959066;28;25077;-73
2023/05/15 07:31:55;;;;;;;32.15;19.92;;;;;;;;;;4956787;28;25077;-75
2023/05/15 07:34:22;;;;;;;27.00;18.52;;;;;;;;;;4956026;28;25084;-75
2023/05/15 07:36:48;;;;;;;30.27;19.75;;;;;;;;;;4956683;28;25067;-75
2023/05/15 07:39:14;;;;;;;25.67;17.45;;;;;;;;;;4957220;28;25060;-75
2023/05/15 07:41:40;;;;;;;32.13;20.17;;;;;;;;;;4957160;28;25048;-75
2023/05/15 07:44:06;;;;;;;34.45;18.30;;;;;;;;;;4955867;28;25048;-75
2023/05/15 07:46:33;;;;;;;29.83;20.13;;;;;;;;;;4956370;28;25081;-74
2023/05/15 07:48:59;;;;;;;28.42;19.15;;;;;;;;;;4956523;28;25058;-76
2023/05/15 07:51:24;;;;;;;33.80;19.10;;;;;;;;;;4956771;28;25068;-73
2023/05/15 07:53:50;;;;;;;28.65;19.90;;;;;;;;;;4956371;28;25066;-75
2023/05/15 07:56:16;;;;;;;31.38;20.08;;;;;;;;;;4956169;28;25093;-75
2023/05/15 07:58:42;;;;;;;28.77;19.40;;;;;;;;;;4956718;28;25055;-74
2023/05/15 08:01:08;;;;;;;30.85;19.50;;;;;;;;;;4955422;28;25068;-77
2023/05/15 08:03:34;;;;;;;29.00;18.63;;;;;;;;;;4955956;28;25069;-74
2023/05/15 08:06:00;;;;;;;28.50;18.73;;;;;;;;;;4955326;28;25093;-76
2023/05/15 08:08:26;;;;;;;27.50;17.63;;;;;;;;;;4952726;28;25074;-74
2023/05/15 08:10:52;;;;;;;34.47;20.48;;;;;;;;;;4957010;28;24856;-73
2023/05/15 08:13:18;;;;;;;34.17;20.75;;;;;;;;;;4955465;28;25071;-74
2023/05/15 08:15:44;;;;;;;29.65;19.75;;;;;;;;;;4957357;28;25059;-74
2023/05/15 08:18:10;;;;;;;30.73;20.63;;;;;;;;;;4956464;28;25098;-75
2023/05/15 08:20:39;;;;;;;35.10;20.58;;;;;;;;;;4955419;28;25089;-76
2023/05/15 08:23:05;;;;;;;28.95;18.63;;;;;;;;;;4955490;28;25063;-76
2023/05/15 08:25:31;;;;;;;28.13;19.15;;;;;;;;;;4954294;28;25103;-75
2023/05/15 08:27:57;;;;;;;33.22;20.60;;;;;;;;;;4955074;28;25075;-76
2023/05/15 08:30:23;;;;;;;32.80;20.10;;;;;;;;;;4957246;28;25047;-77
2023/05/15 08:32:49;;;;;;;30.90;20.25;;;;;;;;;;4955562;28;25045;-75
2023/05/15 08:35:15;;;;;;;28.48;19.40;;;;;;;;;;4954250;28;25352;-75
2023/05/15 08:37:41;;;;;;;31.33;19.50;;;;;;;;;;4955356;28;25125;-74
2023/05/15 08:40:08;;;;;;;27.33;18.10;;;;;;;;;;4955567;28;25068;-76
2023/05/15 08:42:52;;;;;;;32.10;19.25;;;;;;;;;;4956307;28;25066;-75
2023/05/15 08:45:19;;;;;;;34.50;20.35;;;;;;;;;;4957096;28;25065;-75
2023/05/15 08:47:45;;;;;;;30.95;19.63;;;;;;;;;;4957461;28;25058;-75
2023/05/15 08:50:13;;;;;;;30.08;19.63;;;;;;;;;;4954187;28;25094;-75
2023/05/15 08:52:41;;;;;;;35.03;22.33;;;;;;;;;;4955710;28;25075;-75
2023/05/15 08:55:08;;;;;;;36.20;22.52;;;;;;;;;;4955532;28;25048;-75
2023/05/15 08:57:34;;;;;;;36.45;22.73;;;;;;;;;;4954850;28;25068;-75
2023/05/15 09:00:00;;;;;;;41.58;25.92;;;;;;;;;;4954961;28;25051;-75
2023/05/15 09:02:26;;;;;;;37.92;24.23;;;;;;;;;;4954979;28;25057;-76
2023/05/15 09:04:52;;;;;;;48.00;25.85;;;;;;;;;;4955197;28;25071;-77
2023/05/15 09:07:19;;;;;;;41.00;25.73;;;;;;;;;;4952244;28;25073;-73
2023/05/15 09:09:46;;;;;;;47.72;29.42;;;;;;;;;;4955584;28;25063;-74
2023/05/15 09:12:13;;;;;;;51.88;30.30;;;;;;;;;;4956800;28;25154;-74
2023/05/15 09:14:39;;;;;;;52.13;31.23;;;;;;;;;;4967963;28;25083;-74
2023/05/15 09:17:05;;;;;;;55.42;31.83;;;;;;;;;;4973578;28;25079;-76
2023/05/15 09:19:33;;;;;;;53.25;31.92;;;;;;;;;;4971705;28;25046;-76
2023/05/15 09:22:24;;;;;;;57.70;32.85;;;;;;;;;;4973522;28;25067;-75
2023/05/15 09:24:51;;;;;;;61.47;33.25;;;;;;;;;;4966025;28;25102;-75
2023/05/15 09:27:18;;;;;;;58.00;32.72;;;;;;;;;;4958043;28;25168;-75
2023/05/15 09:29:44;;;;;;;60.55;32.53;;;;;;;;;;4959919;28;25079;-74
2023/05/15 09:32:11;;;;;;;60.40;33.78;;;;;;;;;;4965583;28;25066;-74
2023/05/15 09:34:38;;;;;;;51.85;31.85;;;;;;;;;;4967031;28;25061;-75
2023/05/15 09:37:05;;;;;;;55.10;33.63;;;;;;;;;;4963452;28;25069;-76
2023/05/15 09:39:31;;;;;;;57.25;32.83;;;;;;;;;;4958296;28;25098;-76
2023/05/15 09:42:08;;;;;;;61.15;34.17;;;;;;;;;;4956630;28;25077;-74
2023/05/15 09:44:34;;;;;;;64.05;35.33;;;;;;;;;;4959624;28;25064;-74
2023/05/15 09:47:00;;;;;;;63.85;35.95;;;;;;;;;;4958615;28;25056;-75
2023/05/15 09:49:29;;;;;;;64.07;36.20;;;;;;;;;;4961338;28;25049;-75
2023/05/15 09:51:58;;;;;;;67.97;37.13;;;;;;;;;;4965897;28;25059;-73
2023/05/15 09:54:26;;;;;;;69.13;36.03;;;;;;;;;;4964522;28;25096;-74
2023/05/15 09:56:52;;;;;;;64.95;35.40;;;;;;;;;;4965472;28;25102;-75
2023/05/15 09:59:22;;;;;;;73.55;37.47;;;;;;;;;;4963193;28;25093;-76
2023/05/15 10:01:49;;;;;;;68.65;35.53;;;;;;;;;;4966795;28;25058;-74
2023/05/15 10:04:15;;;;;;;76.13;33.22;;;;;;;;;;4963939;28;25064;-75
2023/05/15 10:06:41;;;;;;;65.32;33.65;;;;;;;;;;4966988;28;25071;-73
2023/05/15 10:09:09;;;;;;;68.57;32.58;;;;;;;;;;4965156;28;25164;-72
2023/05/15 10:11:36;;;;;;;67.72;33.42;;;;;;;;;;4965693;28;25132;-74
2023/05/15 10:14:04;;;;;;;65.05;33.33;;;;;;;;;;4965147;28;25080;-75
2023/05/15 10:16:33;;;;;;;67.00;33.95;;;;;;;;;;4963285;28;25062;-74
2023/05/15 10:19:00;;;;;;;65.50;32.05;;;;;;;;;;4966201;28;25073;-73
2023/05/15 10:21:27;;;;;;;66.82;32.60;;;;;;;;;;4965818;28;26206;-73
2023/05/15 10:23:54;;;;;;;60.30;30.17;;;;;;;;;;4965065;28;25087;-74
2023/05/15 10:26:23;;;;;;;65.43;30.17;;;;;;;;;;4964970;28;25087;-75
2023/05/15 10:28:49;;;;;;;60.53;29.88;;;;;;;;;;4966266;28;25083;-74
2023/05/15 10:31:16;;;;;;;57.08;27.67;;;;;;;;;;4966594;28;25072;-74
2023/05/15 10:33:42;;;;;;;52.30;25.75;;;;;;;;;;4967118;28;25079;-75
2023/05/15 10:36:08;;;;;;;50.10;25.50;;;;;;;;;;4966108;28;25082;-76
2023/05/15 10:38:35;;;;;;;41.20;23.42;;;;;;;;;;4966351;28;25067;-75
2023/05/15 10:41:03;;;;;;;48.42;23.80;;;;;;;;;;4964178;28;25064;-76
2023/05/15 10:43:30;;;;;;;46.05;23.70;;;;;;;;;;4965977;28;25057;-74
2023/05/15 10:45:56;;;;;;;50.42;24.42;;;;;;;;;;4965792;28;25120;-76
2023/05/15 10:48:22;;;;;;;43.25;24.13;;;;;;;;;;4968245;28;25050;-76
2023/05/15 10:50:48;;;;;;;49.38;25.13;;;;;;;;;;4968044;28;25064;-77
2023/05/15 10:53:15;;;;;;;42.95;22.88;;;;;;;;;;4966385;28;25050;-77
2023/05/15 10:55:41;;;;;;;47.47;23.75;;;;;;;;;;4970628;28;25076;-75
2023/05/15 10:58:10;;;;;;;42.60;23.08;;;;;;;;;;4969686;28;25081;-77
2023/05/15 11:00:43;;;;;;;42.95;21.85;;;;;;;;;;4966773;28;25117;-75
2023/05/15 11:03:12;;;;;;;38.97;20.35;;;;;;;;;;4968090;28;25068;-76
2023/05/15 11:05:57;;;;;;;38.38;20.70;;;;;;;;;;4966134;28;25091;-76
2023/05/15 11:08:24;;;;;;;41.25;21.25;;;;;;;;;;4964450;28;25144;-76
2023/05/15 11:10:52;;;;;;;36.60;20.60;;;;;;;;;;4968563;28;25075;-77
2023/05/15 11:13:18;;;;;;;37.65;20.85;;;;;;;;;;4968103;28;25054;-76
2023/05/15 11:15:47;;;;;;;48.17;24.38;;;;;;;;;;4964378;28;25066;-82
2023/05/15 11:18:14;;;;;;;37.38;19.67;;;;;;;;;;4965040;28;25146;-78
2023/05/15 11:20:41;;;;;;;30.63;17.33;;;;;;;;;;4965870;28;25088;-76
2023/05/15 11:23:07;;;;;;;29.50;16.52;;;;;;;;;;4966795;28;25061;-75
2023/05/15 11:25:34;;;;;;;27.20;17.20;;;;;;;;;;4968114;28;25093;-75
2023/05/15 11:28:01;;;;;;;26.85;16.70;;;;;;;;;;4963484;28;25071;-75
2023/05/15 11:30:35;;;;;;;28.02;16.85;;;;;;;;;;4964104;28;25066;-78
2023/05/15 11:33:02;;;;;;;28.50;15.43;;;;;;;;;;4966204;28;25070;-79
2023/05/15 11:35:28;;;;;;;23.73;14.68;;;;;;;;;;4960887;28;25074;-75
2023/05/15 11:37:56;;;;;;;23.30;14.73;;;;;;;;;;4961184;28;25089;-73
2023/05/15 11:40:22;;;;;;;25.30;14.57;;;;;;;;;;4966421;28;25050;-76
2023/05/15 11:43:07;;;;;;;24.05;15.00;;;;;;;;;;4966291;28;25104;-74
2023/05/15 11:45:35;;;;;;;26.13;14.82;;;;;;;;;;4966798;28;25100;-76
2023/05/15 11:48:02;;;;;;;26.48;16.08;;;;;;;;;;4970323;28;25074;-76
2023/05/15 11:50:29;;;;;;;23.80;14.80;;;;;;;;;;4968969;28;25077;-78
2023/05/15 11:52:56;;;;;;;20.10;12.25;;;;;;;;;;4964739;28;25053;-72
2023/05/15 11:55:22;;;;;;;21.38;13.82;;;;;;;;;;4962085;28;25131;-77
2023/05/15 11:57:48;;;;;;;19.27;11.38;;;;;;;;;;4964477;28;25065;-76
2023/05/15 12:00:14;;;;;;;19.52;12.20;;;;;;;;;;4966297;28;25145;-77
2023/05/15 12:02:40;;;;;;;15.93;8.80;;;;;;;;;;4959607;28;25070;-76
2023/05/15 12:05:07;;;;;;;13.55;6.60;;;;;;;;;;4965553;28;25079;-78
2023/05/15 12:07:37;;;;;;;9.85;5.50;;;;;;;;;;4964456;28;25109;-76
2023/05/15 12:10:03;;;;;;;10.02;5.05;;;;;;;;;;4964163;28;25066;-76
2023/05/15 12:12:29;;;;;;;7.82;4.63;;;;;;;;;;4964160;28;25084;-75
2023/05/15 12:14:59;;;;;;;7.28;4.50;;;;;;;;;;4963950;28;25090;-76
2023/05/15 12:17:26;;;;;;;7.47;4.10;;;;;;;;;;4957091;28;25059;-76
2023/05/15 12:19:52;;;;;;;14.70;5.82;;;;;;;;;;4956904;28;25105;-74
2023/05/15 12:22:18;;;;;;;12.32;6.47;;;;;;;;;;4953427;28;25051;-75
2023/05/15 12:24:44;;;;;;;22.10;6.82;;;;;;;;;;4955865;28;25063;-73
2023/05/15 12:27:11;;;;;;;12.15;5.45;;;;;;;;;;4956302;28;25064;-76
2023/05/15 12:29:37;;;;;;;9.77;5.82;;;;;;;;;;4956411;28;25076;-73
2023/05/15 12:32:04;;;;;;;10.15;5.47;;;;;;;;;;4957408;28;25051;-75
2023/05/15 12:34:30;;;;;;;12.18;5.35;;;;;;;;;;4956819;28;25135;-77
2023/05/15 12:36:58;;;;;;;6.88;3.92;;;;;;;;;;4957142;28;25076;-76
2023/05/15 12:39:24;;;;;;;11.68;4.10;;;;;;;;;;4959370;28;25066;-74
2023/05/15 12:41:53;;;;;;;10.90;3.97;;;;;;;;;;4956443;28;25074;-75
2023/05/15 12:44:19;;;;;;;10.32;3.63;;;;;;;;;;4961296;28;25082;-73
2023/05/15 12:46:45;;;;;;;11.95;3.78;;;;;;;;;;4968774;28;25065;-73
2023/05/15 12:49:11;;;;;;;14.13;4.22;;;;;;;;;;4965111;28;25069;-77
2023/05/15 12:51:42;;;;;;;16.73;6.07;;;;;;;;;;4962838;28;25064;-74
2023/05/15 12:54:16;;;;;;;13.68;4.45;;;;;;;;;;4957810;28;25101;-74
2023/05/15 12:56:42;;;;;;;16.58;4.72;;;;;;;;;;4957739;28;25147;-74
2023/05/15 12:59:08;;;;;;;17.73;6.07;;;;;;;;;;4955097;28;25099;-76
2023/05/15 13:01:34;;;;;;;11.32;5.70;;;;;;;;;;4958728;28;25086;-76
2023/05/15 13:04:00;;;;;;;26.88;5.60;;;;;;;;;;4957398;28;25072;-75
2023/05/15 13:06:27;;;;;;;7.45;4.18;;;;;;;;;;4955288;28;25069;-80
2023/05/15 13:08:53;;;;;;;15.23;4.80;;;;;;;;;;4957118;28;25154;-79
2023/05/15 13:11:19;;;;;;;9.52;4.45;;;;;;;;;;4958972;28;25148;-76
2023/05/15 13:13:46;;;;;;;13.18;3.88;;;;;;;;;;4958906;28;25079;-75
2023/05/15 13:16:20;;;;;;;6.55;3.45;;;;;;;;;;4955745;28;25086;-76
2023/05/15 13:18:46;;;;;;;9.82;3.53;;;;;;;;;;4957936;28;25047;-75
2023/05/15 13:21:12;;;;;;;11.32;3.15;;;;;;;;;;4954209;28;25105;-74
2023/05/15 13:23:38;;;;;;;9.02;2.75;;;;;;;;;;4958617;28;25104;-77
2023/05/15 13:26:04;;;;;;;15.32;3.13;;;;;;;;;;4957064;28;25064;-74
2023/05/15 13:28:30;;;;;;;12.57;3.58;;;;;;;;;;4958077;28;25100;-76
2023/05/15 13:30:56;;;;;;;12.90;3.97;;;;;;;;;;4958183;28;25053;-78
2023/05/15 13:33:22;;;;;;;28.70;6.30;;;;;;;;;;4957488;28;25109;-76
2023/05/15 13:35:47;;;;;;;18.90;4.47;;;;;;;;;;4957298;28;25091;-79
2023/05/15 13:38:14;;;;;;;13.35;4.00;;;;;;;;;;4963756;28;25085;-75
2023/05/15 13:40:40;;;;;;;15.10;4.45;;;;;;;;;;4961083;28;25088;-74
2023/05/15 13:43:06;;;;;;;12.68;3.58;;;;;;;;;;4955142;28;25058;-77
2023/05/15 13:45:32;;;;;;;12.85;3.40;;;;;;;;;;4957586;28;25179;-75
2023/05/15 13:47:57;;;;;;;12.40;3.05;;;;;;;;;;4955172;28;25104;-78
2023/05/15 13:50:23;;;;;;;12.02;3.60;;;;;;;;;;4954964;28;25051;-76
2023/05/15 13:52:49;;;;;;;12.93;3.90;;;;;;;;;;4955516;28;25074;-76
2023/05/15 13:55:15;;;;;;;11.82;3.15;;;;;;;;;;4953723;28;25057;-77
2023/05/15 13:57:42;;;;;;;11.63;3.20;;;;;;;;;;4956689;28;25056;-77
2023/05/15 14:00:11;;;;;;;7.63;3.15;;;;;;;;;;4960892;28;25064;-75
2023/05/15 14:02:37;;;;;;;10.70;3.33;;;;;;;;;;4958398;28;25071;-77
2023/05/15 14:05:04;;;;;;;9.73;2.58;;;;;;;;;;4959732;28;25058;-77
2023/05/15 14:07:30;;;;;;;7.45;2.58;;;;;;;;;;4957866;28;25088;-77
2023/05/15 14:09:56;;;;;;;6.47;2.97;;;;;;;;;;4958940;28;25065;-73
2023/05/15 14:12:22;;;;;;;4.47;1.90;;;;;;;;;;4957790;28;25068;-77
2023/05/15 14:14:49;;;;;;;3.40;2.47;;;;;;;;;;4957889;28;25068;-78
2023/05/15 14:17:15;;;;;;;6.63;2.00;;;;;;;;;;4958028;28;25078;-74